sensor_id;sensor_type;location;lat;lon;timestamp;P1;durP1;ratioP1;P2;durP2;ratioP2
65033;SDS011;51601;51.356;12.458;2023-08-30T00:01:47;7.13;;;3.90;;
65033;SDS011;51601;51.356;12.458;2023-08-30T00:06:05;8.40;;;3.80;;
65033;SDS011;51601;51.356;12.458;2023-08-30T00:10:25;7.15;;;3.50;;
65033;SDS011;51601;51.356;12.458;2023-08-30T00:14:44;6.45;;;3.40;;
65033;SDS011;51601;51.356;12.458;2023-08-30T00:19:02;7.67;;;3.97;;
65033;SDS011;51601;51.356;12.458;2023-08-30T00:23:20;7.40;;;4.15;;
65033;SDS011;51601;51.356;12.458;2023-08-30T00:27:40;6.60;;;3.70;;
65033;SDS011;51601;51.356;12.458;2023-08-30T00:31:59;8.07;;;4.07;;
65033;SDS011;51601;51.356;12.458;2023-08-30T00:36:17;7.50;;;3.90;;
65033;SDS011;51601;51.356;12.458;2023-08-30T00:40:39;7.22;;;3.28;;
65033;SDS011;51601;51.356;12.458;2023-08-30T00:45:01;7.57;;;3.40;;
65033;SDS011;51601;51.356;12.458;2023-08-30T00:49:21;6.50;;;3.47;;
65033;SDS011;51601;51.356;12.458;2023-08-30T00:53:39;6.93;;;3.25;;
65033;SDS011;51601;51.356;12.458;2023-08-30T00:57:57;6.55;;;3.28;;
65033;SDS011;51601;51.356;12.458;2023-08-30T01:02:17;6.17;;;2.97;;
65033;SDS011;51601;51.356;12.458;2023-08-30T01:06:36;7.35;;;3.50;;
65033;SDS011;51601;51.356;12.458;2023-08-30T01:10:59;7.22;;;3.10;;
65033;SDS011;51601;51.356;12.458;2023-08-30T01:15:25;6.30;;;3.13;;
65033;SDS011;51601;51.356;12.458;2023-08-30T01:19:48;7.20;;;3.30;;
65033;SDS011;51601;51.356;12.458;2023-08-30T01:24:19;6.75;;;3.63;;
65033;SDS011;51601;51.356;12.458;2023-08-30T01:28:49;7.40;;;3.35;;
65033;SDS011;51601;51.356;12.458;2023-08-30T01:33:11;8.00;;;3.80;;
65033;SDS011;51601;51.356;12.458;2023-08-30T01:37:38;8.00;;;3.45;;
65033;SDS011;51601;51.356;12.458;2023-08-30T01:42:03;6.78;;;3.58;;
65033;SDS011;51601;51.356;12.458;2023-08-30T01:46:29;7.60;;;3.50;;
65033;SDS011;51601;51.356;12.458;2023-08-30T01:50:54;7.38;;;3.55;;
65033;SDS011;51601;51.356;12.458;2023-08-30T01:55:18;7.65;;;3.60;;
65033;SDS011;51601;51.356;12.458;2023-08-30T01:59:42;6.60;;;3.20;;
65033;SDS011;51601;51.356;12.458;2023-08-30T02:04:05;7.47;;;3.53;;
65033;SDS011;51601;51.356;12.458;2023-08-30T02:08:25;7.53;;;3.83;;
65033;SDS011;51601;51.356;12.458;2023-08-30T02:12:51;7.05;;;3.65;;
65033;SDS011;51601;51.356;12.458;2023-08-30T02:17:13;7.60;;;3.90;;
65033;SDS011;51601;51.356;12.458;2023-08-30T02:21:36;8.18;;;3.70;;
65033;SDS011;51601;51.356;12.458;2023-08-30T02:25:58;9.35;;;3.90;;
65033;SDS011;51601;51.356;12.458;2023-08-30T02:30:16;7.40;;;3.83;;
65033;SDS011;51601;51.356;12.458;2023-08-30T02:34:37;7.07;;;3.70;;
65033;SDS011;51601;51.356;12.458;2023-08-30T02:38:56;10.60;;;4.05;;
65033;SDS011;51601;51.356;12.458;2023-08-30T02:43:16;8.38;;;3.88;;
65033;SDS011;51601;51.356;12.458;2023-08-30T02:47:34;7.47;;;3.83;;
65033;SDS011;51601;51.356;12.458;2023-08-30T02:51:52;7.82;;;3.80;;
65033;SDS011;51601;51.356;12.458;2023-08-30T02:56:12;7.47;;;3.88;;
65033;SDS011;51601;51.356;12.458;2023-08-30T03:00:31;8.30;;;4.27;;
65033;SDS011;51601;51.356;12.458;2023-08-30T03:04:50;7.63;;;4.40;;
65033;SDS011;51601;51.356;12.458;2023-08-30T03:09:11;9.68;;;5.13;;
65033;SDS011;51601;51.356;12.458;2023-08-30T03:13:30;8.67;;;4.33;;
65033;SDS011;51601;51.356;12.458;2023-08-30T03:17:50;8.32;;;4.90;;
65033;SDS011;51601;51.356;12.458;2023-08-30T03:22:11;10.02;;;5.22;;
65033;SDS011;51601;51.356;12.458;2023-08-30T03:26:29;9.95;;;5.15;;
65033;SDS011;51601;51.356;12.458;2023-08-30T03:30:48;12.43;;;5.43;;
65033;SDS011;51601;51.356;12.458;2023-08-30T03:35:08;9.35;;;5.35;;
65033;SDS011;51601;51.356;12.458;2023-08-30T03:39:26;11.63;;;5.72;;
65033;SDS011;51601;51.356;12.458;2023-08-30T03:43:44;8.47;;;5.00;;
65033;SDS011;51601;51.356;12.458;2023-08-30T03:48:10;9.90;;;5.60;;
65033;SDS011;51601;51.356;12.458;2023-08-30T03:52:30;8.85;;;5.18;;
65033;SDS011;51601;51.356;12.458;2023-08-30T03:56:48;13.10;;;5.80;;
65033;SDS011;51601;51.356;12.458;2023-08-30T04:01:06;12.57;;;5.28;;
65033;SDS011;51601;51.356;12.458;2023-08-30T04:05:31;9.32;;;5.60;;
65033;SDS011;51601;51.356;12.458;2023-08-30T04:09:51;10.70;;;5.10;;
65033;SDS011;51601;51.356;12.458;2023-08-30T04:14:09;9.70;;;5.50;;
65033;SDS011;51601;51.356;12.458;2023-08-30T04:18:30;10.15;;;5.25;;
65033;SDS011;51601;51.356;12.458;2023-08-30T04:22:50;7.97;;;4.45;;
65033;SDS011;51601;51.356;12.458;2023-08-30T04:27:12;12.90;;;4.87;;
65033;SDS011;51601;51.356;12.458;2023-08-30T04:31:31;10.05;;;4.88;;
65033;SDS011;51601;51.356;12.458;2023-08-30T04:35:50;11.10;;;5.10;;
65033;SDS011;51601;51.356;12.458;2023-08-30T04:40:14;9.07;;;5.33;;
65033;SDS011;51601;51.356;12.458;2023-08-30T04:44:34;8.90;;;5.40;;
65033;SDS011;51601;51.356;12.458;2023-08-30T04:48:59;11.63;;;5.20;;
65033;SDS011;51601;51.356;12.458;2023-08-30T04:53:23;8.80;;;5.25;;
65033;SDS011;51601;51.356;12.458;2023-08-30T04:57:42;9.80;;;5.17;;
65033;SDS011;51601;51.356;12.458;2023-08-30T05:02:08;9.25;;;5.03;;
65033;SDS011;51601;51.356;12.458;2023-08-30T05:06:35;10.13;;;4.82;;
65033;SDS011;51601;51.356;12.458;2023-08-30T05:10:56;10.00;;;5.50;;
65033;SDS011;51601;51.356;12.458;2023-08-30T05:15:16;9.57;;;5.35;;
65033;SDS011;51601;51.356;12.458;2023-08-30T05:19:35;9.80;;;5.47;;
65033;SDS011;51601;51.356;12.458;2023-08-30T05:23:56;8.93;;;5.27;;
65033;SDS011;51601;51.356;12.458;2023-08-30T05:28:16;11.00;;;5.47;;
65033;SDS011;51601;51.356;12.458;2023-08-30T05:32:37;10.77;;;5.60;;
65033;SDS011;51601;51.356;12.458;2023-08-30T05:37:00;9.10;;;5.40;;
65033;SDS011;51601;51.356;12.458;2023-08-30T05:42:05;10.23;;;5.33;;
65033;SDS011;51601;51.356;12.458;2023-08-30T05:46:31;12.02;;;5.35;;
65033;SDS011;51601;51.356;12.458;2023-08-30T05:50:52;9.52;;;5.00;;
65033;SDS011;51601;51.356;12.458;2023-08-30T05:55:13;9.83;;;5.57;;
65033;SDS011;51601;51.356;12.458;2023-08-30T05:59:32;10.63;;;6.30;;
65033;SDS011;51601;51.356;12.458;2023-08-30T06:03:53;10.50;;;5.90;;
65033;SDS011;51601;51.356;12.458;2023-08-30T06:08:16;10.73;;;5.47;;
65033;SDS011;51601;51.356;12.458;2023-08-30T06:12:41;10.52;;;5.90;;
65033;SDS011;51601;51.356;12.458;2023-08-30T06:16:59;12.75;;;5.50;;
65033;SDS011;51601;51.356;12.458;2023-08-30T06:21:17;10.70;;;5.43;;
65033;SDS011;51601;51.356;12.458;2023-08-30T06:25:37;10.40;;;5.30;;
65033;SDS011;51601;51.356;12.458;2023-08-30T06:29:56;8.75;;;4.80;;
65033;SDS011;51601;51.356;12.458;2023-08-30T06:34:20;8.73;;;4.28;;
65033;SDS011;51601;51.356;12.458;2023-08-30T06:38:45;8.37;;;4.13;;
65033;SDS011;51601;51.356;12.458;2023-08-30T06:43:10;9.00;;;4.15;;
65033;SDS011;51601;51.356;12.458;2023-08-30T06:47:31;11.27;;;4.10;;
65033;SDS011;51601;51.356;12.458;2023-08-30T06:51:51;10.20;;;4.27;;
65033;SDS011;51601;51.356;12.458;2023-08-30T06:56:13;9.70;;;4.00;;
65033;SDS011;51601;51.356;12.458;2023-08-30T07:00:35;7.07;;;3.80;;
65033;SDS011;51601;51.356;12.458;2023-08-30T07:04:54;8.20;;;3.65;;
65033;SDS011;51601;51.356;12.458;2023-08-30T07:09:16;8.83;;;3.73;;
65033;SDS011;51601;51.356;12.458;2023-08-30T07:13:37;7.93;;;3.40;;
65033;SDS011;51601;51.356;12.458;2023-08-30T07:17:56;7.28;;;3.50;;
65033;SDS011;51601;51.356;12.458;2023-08-30T07:22:16;6.93;;;3.80;;
65033;SDS011;51601;51.356;12.458;2023-08-30T07:26:34;9.02;;;3.22;;
65033;SDS011;51601;51.356;12.458;2023-08-30T07:30:52;6.50;;;3.53;;
65033;SDS011;51601;51.356;12.458;2023-08-30T07:35:22;7.90;;;3.17;;
65033;SDS011;51601;51.356;12.458;2023-08-30T07:39:42;8.32;;;3.63;;
65033;SDS011;51601;51.356;12.458;2023-08-30T07:44:04;7.07;;;3.50;;
65033;SDS011;51601;51.356;12.458;2023-08-30T07:48:31;8.73;;;4.30;;
65033;SDS011;51601;51.356;12.458;2023-08-30T07:52:51;5.80;;;3.00;;
65033;SDS011;51601;51.356;12.458;2023-08-30T07:57:08;7.15;;;3.00;;
65033;SDS011;51601;51.356;12.458;2023-08-30T08:01:26;6.10;;;2.70;;
65033;SDS011;51601;51.356;12.458;2023-08-30T08:05:44;7.53;;;2.73;;
65033;SDS011;51601;51.356;12.458;2023-08-30T08:10:07;5.85;;;2.53;;
65033;SDS011;51601;51.356;12.458;2023-08-30T08:14:26;5.78;;;2.50;;
65033;SDS011;51601;51.356;12.458;2023-08-30T08:18:44;5.00;;;2.30;;
65033;SDS011;51601;51.356;12.458;2023-08-30T08:23:03;6.70;;;2.20;;
65033;SDS011;51601;51.356;12.458;2023-08-30T08:27:22;6.80;;;2.30;;
65033;SDS011;51601;51.356;12.458;2023-08-30T08:31:42;6.82;;;2.53;;
65033;SDS011;51601;51.356;12.458;2023-08-30T08:36:00;6.27;;;2.40;;
65033;SDS011;51601;51.356;12.458;2023-08-30T08:40:18;6.05;;;2.42;;
65033;SDS011;51601;51.356;12.458;2023-08-30T08:44:59;5.82;;;2.08;;
65033;SDS011;51601;51.356;12.458;2023-08-30T08:49:18;7.70;;;2.10;;
65033;SDS011;51601;51.356;12.458;2023-08-30T08:53:37;6.80;;;2.45;;
65033;SDS011;51601;51.356;12.458;2023-08-30T08:57:55;6.00;;;2.38;;
65033;SDS011;51601;51.356;12.458;2023-08-30T09:02:14;6.10;;;2.40;;
65033;SDS011;51601;51.356;12.458;2023-08-30T09:06:33;6.07;;;2.15;;
65033;SDS011;51601;51.356;12.458;2023-08-30T09:10:52;5.90;;;1.90;;
65033;SDS011;51601;51.356;12.458;2023-08-30T09:15:10;5.03;;;1.80;;
65033;SDS011;51601;51.356;12.458;2023-08-30T09:19:29;4.20;;;1.57;;
65033;SDS011;51601;51.356;12.458;2023-08-30T09:23:56;5.82;;;2.03;;
65033;SDS011;51601;51.356;12.458;2023-08-30T09:28:16;7.40;;;2.40;;
65033;SDS011;51601;51.356;12.458;2023-08-30T09:32:38;6.43;;;2.40;;
65033;SDS011;51601;51.356;12.458;2023-08-30T09:37:00;6.30;;;2.10;;
65033;SDS011;51601;51.356;12.458;2023-08-30T09:41:24;7.30;;;2.60;;
65033;SDS011;51601;51.356;12.458;2023-08-30T09:45:41;5.97;;;2.20;;
65033;SDS011;51601;51.356;12.458;2023-08-30T09:49:59;5.70;;;1.80;;
65033;SDS011;51601;51.356;12.458;2023-08-30T09:54:22;5.63;;;1.80;;
65033;SDS011;51601;51.356;12.458;2023-08-30T09:58:53;5.20;;;1.80;;
65033;SDS011;51601;51.356;12.458;2023-08-30T10:03:11;4.40;;;1.70;;
65033;SDS011;51601;51.356;12.458;2023-08-30T10:07:45;5.22;;;1.80;;
65033;SDS011;51601;51.356;12.458;2023-08-30T10:12:05;4.78;;;1.65;;
65033;SDS011;51601;51.356;12.458;2023-08-30T10:16:24;5.60;;;1.90;;
65033;SDS011;51601;51.356;12.458;2023-08-30T10:20:45;5.15;;;1.80;;
65033;SDS011;51601;51.356;12.458;2023-08-30T10:25:05;5.60;;;1.90;;
65033;SDS011;51601;51.356;12.458;2023-08-30T10:29:29;5.80;;;2.00;;
65033;SDS011;51601;51.356;12.458;2023-08-30T10:33:49;4.65;;;2.08;;
65033;SDS011;51601;51.356;12.458;2023-08-30T10:38:07;5.50;;;2.45;;
65033;SDS011;51601;51.356;12.458;2023-08-30T10:42:25;5.15;;;2.20;;
65033;SDS011;51601;51.356;12.458;2023-08-30T10:46:44;4.70;;;2.13;;
65033;SDS011;51601;51.356;12.458;2023-08-30T10:51:20;7.15;;;3.10;;
65033;SDS011;51601;51.356;12.458;2023-08-30T10:55:37;6.32;;;1.80;;
65033;SDS011;51601;51.356;12.458;2023-08-30T11:00:05;5.50;;;2.00;;
65033;SDS011;51601;51.356;12.458;2023-08-30T19:56:02;9.20;;;5.03;;
65033;SDS011;51601;51.356;12.458;2023-08-30T20:00:25;10.40;;;5.15;;
65033;SDS011;51601;51.356;12.458;2023-08-30T20:04:42;8.77;;;4.83;;
65033;SDS011;51601;51.356;12.458;2023-08-30T20:09:01;7.85;;;4.55;;
65033;SDS011;51601;51.356;12.458;2023-08-30T20:13:20;10.60;;;4.70;;
65033;SDS011;51601;51.356;12.458;2023-08-30T20:17:39;8.67;;;4.50;;
65033;SDS011;51601;51.356;12.458;2023-08-30T20:21:58;7.60;;;4.57;;
65033;SDS011;51601;51.356;12.458;2023-08-30T20:26:16;8.48;;;4.57;;
65033;SDS011;51601;51.356;12.458;2023-08-30T20:30:45;9.27;;;4.90;;
65033;SDS011;51601;51.356;12.458;2023-08-30T20:35:05;8.43;;;4.10;;
65033;SDS011;51601;51.356;12.458;2023-08-30T20:39:25;7.82;;;4.60;;
65033;SDS011;51601;51.356;12.458;2023-08-30T20:43:43;7.85;;;4.13;;
65033;SDS011;51601;51.356;12.458;2023-08-30T20:48:04;8.17;;;4.70;;
65033;SDS011;51601;51.356;12.458;2023-08-30T20:52:25;8.93;;;4.68;;
65033;SDS011;51601;51.356;12.458;2023-08-30T20:56:44;9.85;;;4.90;;
65033;SDS011;51601;51.356;12.458;2023-08-30T21:01:08;9.20;;;4.50;;
65033;SDS011;51601;51.356;12.458;2023-08-30T21:05:31;10.52;;;4.53;;
65033;SDS011;51601;51.356;12.458;2023-08-30T21:09:53;8.05;;;4.35;;
65033;SDS011;51601;51.356;12.458;2023-08-30T21:14:14;8.88;;;4.30;;
65033;SDS011;51601;51.356;12.458;2023-08-30T21:18:32;9.03;;;4.30;;
65033;SDS011;51601;51.356;12.458;2023-08-30T21:22:52;7.47;;;4.30;;
65033;SDS011;51601;51.356;12.458;2023-08-30T21:27:11;7.47;;;4.32;;
65033;SDS011;51601;51.356;12.458;2023-08-30T21:31:30;8.10;;;4.70;;
65033;SDS011;51601;51.356;12.458;2023-08-30T21:35:47;9.05;;;4.72;;
65033;SDS011;51601;51.356;12.458;2023-08-30T21:40:11;9.07;;;4.82;;
65033;SDS011;51601;51.356;12.458;2023-08-30T21:44:30;8.37;;;5.23;;
65033;SDS011;51601;51.356;12.458;2023-08-30T21:48:48;10.05;;;4.70;;
65033;SDS011;51601;51.356;12.458;2023-08-30T21:53:06;9.25;;;4.88;;
65033;SDS011;51601;51.356;12.458;2023-08-30T21:57:26;9.90;;;5.25;;
65033;SDS011;51601;51.356;12.458;2023-08-30T22:01:45;7.37;;;4.33;;
65033;SDS011;51601;51.356;12.458;2023-08-30T22:06:03;8.18;;;5.00;;
65033;SDS011;51601;51.356;12.458;2023-08-30T22:10:24;9.45;;;4.93;;
65033;SDS011;51601;51.356;12.458;2023-08-30T22:14:47;8.27;;;4.87;;
65033;SDS011;51601;51.356;12.458;2023-08-30T22:19:07;6.65;;;3.65;;
65033;SDS011;51601;51.356;12.458;2023-08-30T22:23:25;7.43;;;3.22;;
65033;SDS011;51601;51.356;12.458;2023-08-30T22:27:43;6.60;;;3.17;;
65033;SDS011;51601;51.356;12.458;2023-08-30T22:32:05;5.32;;;2.63;;
65033;SDS011;51601;51.356;12.458;2023-08-30T22:36:28;5.05;;;2.15;;
65033;SDS011;51601;51.356;12.458;2023-08-30T22:40:46;4.18;;;1.80;;
65033;SDS011;51601;51.356;12.458;2023-08-30T22:45:05;4.67;;;1.60;;
65033;SDS011;51601;51.356;12.458;2023-08-30T22:49:28;4.43;;;1.60;;
65033;SDS011;51601;51.356;12.458;2023-08-30T22:53:46;4.65;;;1.70;;
65033;SDS011;51601;51.356;12.458;2023-08-30T22:58:04;4.83;;;1.70;;
65033;SDS011;51601;51.356;12.458;2023-08-30T23:02:22;4.25;;;1.52;;
65033;SDS011;51601;51.356;12.458;2023-08-30T23:06:45;4.13;;;1.52;;
65033;SDS011;51601;51.356;12.458;2023-08-30T23:11:05;4.37;;;1.60;;
65033;SDS011;51601;51.356;12.458;2023-08-30T23:15:26;4.72;;;1.70;;
65033;SDS011;51601;51.356;12.458;2023-08-30T23:19:44;5.35;;;1.80;;
65033;SDS011;51601;51.356;12.458;2023-08-30T23:24:04;5.40;;;1.58;;
65033;SDS011;51601;51.356;12.458;2023-08-30T23:28:23;4.40;;;1.47;;
65033;SDS011;51601;51.356;12.458;2023-08-30T23:32:41;4.35;;;1.50;;
65033;SDS011;51601;51.356;12.458;2023-08-30T23:36:59;4.28;;;1.50;;
65033;SDS011;51601;51.356;12.458;2023-08-30T23:41:19;3.90;;;1.50;;
65033;SDS011;51601;51.356;12.458;2023-08-30T23:45:38;4.05;;;1.40;;
65033;SDS011;51601;51.356;12.458;2023-08-30T23:49:57;4.10;;;1.40;;
65033;SDS011;51601;51.356;12.458;2023-08-30T23:54:15;3.57;;;1.40;;
65033;SDS011;51601;51.356;12.458;2023-08-30T23:58:34;3.70;;;1.45;;
